KMSV

Sullivan County International Airport

Monticello, New York, USA
METAR KMSV 151656Z AUTO 01004KT 10SM CLR 08/06 A3013 RMK AO2 SLP213 T00830061
Observed Flight Rules
Dec-15 @ 16:56 UTC (20 minutes ago) Visual Flight Rules
Wind Visibility Clouds
10° at 4 knots 10 miles
  • Clear skies
Temperatures Readings
Current 8°C / 46°F
Dewpoint 6°C / 43°F
Humidity 87%
Altimeter 30.13" Hg
Pressure 1021.3 hPa
Elevation 428
METAR KMSV 151656Z AUTO 01004KT 10SM CLR 08/06 A3013 RMK AO2 SLP213 T00830061
Observed Flight Rules
Dec-15 @ 16:56 UTC
(20 minutes ago)
VFR
Wind Visibility
10° at 4 knots 10 miles
Clouds
  • Clear skies
Temperature Dewpoint
8°C / 46°F 6°C / 43°F
Humidity Altimeter Pressure
87% 30.13" Hg 1021.3 hPa